sensor_id;sensor_type;location;lat;lon;timestamp;temperature;humidity
32815;DHT22;19165;48.182;16.374;2022-07-01T00:05:22;27.60;57.80
32815;DHT22;19165;48.182;16.374;2022-07-01T00:07:51;27.60;57.80
32815;DHT22;19165;48.182;16.374;2022-07-01T00:10:17;27.60;57.60
32815;DHT22;19165;48.182;16.374;2022-07-01T00:12:43;27.60;57.70
32815;DHT22;19165;48.182;16.374;2022-07-01T00:15:09;27.60;57.80
32815;DHT22;19165;48.182;16.374;2022-07-01T00:17:35;27.50;57.80
32815;DHT22;19165;48.182;16.374;2022-07-01T00:20:01;27.50;57.90
32815;DHT22;19165;48.182;16.374;2022-07-01T00:22:29;27.50;58.00
32815;DHT22;19165;48.182;16.374;2022-07-01T00:24:54;27.40;58.20
32815;DHT22;19165;48.182;16.374;2022-07-01T00:27:20;27.30;58.30
32815;DHT22;19165;48.182;16.374;2022-07-01T00:29:48;27.40;58.40
32815;DHT22;19165;48.182;16.374;2022-07-01T00:32:13;27.40;58.50
32815;DHT22;19165;48.182;16.374;2022-07-01T00:34:39;27.30;59.00
32815;DHT22;19165;48.182;16.374;2022-07-01T00:37:05;27.10;59.10
32815;DHT22;19165;48.182;16.374;2022-07-01T00:39:32;26.80;59.40
32815;DHT22;19165;48.182;16.374;2022-07-01T00:42:00;26.70;59.80
32815;DHT22;19165;48.182;16.374;2022-07-01T00:44:27;26.50;60.00
32815;DHT22;19165;48.182;16.374;2022-07-01T00:46:53;26.50;60.40
32815;DHT22;19165;48.182;16.374;2022-07-01T00:49:20;26.50;60.70
32815;DHT22;19165;48.182;16.374;2022-07-01T00:51:47;26.40;60.90
32815;DHT22;19165;48.182;16.374;2022-07-01T00:54:13;26.40;60.90
32815;DHT22;19165;48.182;16.374;2022-07-01T00:56:41;26.40;61.30
32815;DHT22;19165;48.182;16.374;2022-07-01T00:59:07;26.30;61.30
32815;DHT22;19165;48.182;16.374;2022-07-01T01:01:33;26.30;61.30
32815;DHT22;19165;48.182;16.374;2022-07-01T01:04:00;26.30;61.30
32815;DHT22;19165;48.182;16.374;2022-07-01T01:06:26;26.30;61.00
32815;DHT22;19165;48.182;16.374;2022-07-01T01:08:52;26.30;61.00
32815;DHT22;19165;48.182;16.374;2022-07-01T01:11:18;26.30;60.70
32815;DHT22;19165;48.182;16.374;2022-07-01T01:13:46;26.30;60.60
32815;DHT22;19165;48.182;16.374;2022-07-01T01:16:16;26.30;60.60
32815;DHT22;19165;48.182;16.374;2022-07-01T01:18:43;26.30;60.40
32815;DHT22;19165;48.182;16.374;2022-07-01T01:21:10;26.30;60.40
32815;DHT22;19165;48.182;16.374;2022-07-01T01:23:36;26.30;60.20
32815;DHT22;19165;48.182;16.374;2022-07-01T01:26:02;26.30;60.40
32815;DHT22;19165;48.182;16.374;2022-07-01T01:28:28;26.30;60.00
32815;DHT22;19165;48.182;16.374;2022-07-01T01:30:55;26.30;60.10
32815;DHT22;19165;48.182;16.374;2022-07-01T01:33:20;26.30;60.10
32815;DHT22;19165;48.182;16.374;2022-07-01T01:35:47;26.30;60.00
32815;DHT22;19165;48.182;16.374;2022-07-01T01:38:14;26.30;60.00
32815;DHT22;19165;48.182;16.374;2022-07-01T01:40:40;26.30;59.80
32815;DHT22;19165;48.182;16.374;2022-07-01T01:43:06;26.30;59.60
32815;DHT22;19165;48.182;16.374;2022-07-01T01:45:31;26.40;59.60
32815;DHT22;19165;48.182;16.374;2022-07-01T01:47:57;26.40;59.40
32815;DHT22;19165;48.182;16.374;2022-07-01T01:50:23;26.40;59.20
32815;DHT22;19165;48.182;16.374;2022-07-01T01:52:49;26.50;58.90
32815;DHT22;19165;48.182;16.374;2022-07-01T01:55:16;26.50;58.70
32815;DHT22;19165;48.182;16.374;2022-07-01T01:57:42;26.50;58.40
32815;DHT22;19165;48.182;16.374;2022-07-01T02:00:09;26.60;58.20
32815;DHT22;19165;48.182;16.374;2022-07-01T02:02:38;26.60;58.10
32815;DHT22;19165;48.182;16.374;2022-07-01T02:05:06;26.60;58.00
32815;DHT22;19165;48.182;16.374;2022-07-01T02:07:32;26.70;58.10
32815;DHT22;19165;48.182;16.374;2022-07-01T02:09:58;26.60;58.20
32815;DHT22;19165;48.182;16.374;2022-07-01T02:12:25;26.50;58.30
32815;DHT22;19165;48.182;16.374;2022-07-01T02:14:51;26.50;58.50
32815;DHT22;19165;48.182;16.374;2022-07-01T02:17:17;26.50;58.60
32815;DHT22;19165;48.182;16.374;2022-07-01T02:19:43;26.50;58.50
32815;DHT22;19165;48.182;16.374;2022-07-01T02:22:09;26.50;58.40
32815;DHT22;19165;48.182;16.374;2022-07-01T02:24:34;26.50;57.70
32815;DHT22;19165;48.182;16.374;2022-07-01T02:27:00;26.50;57.60
32815;DHT22;19165;48.182;16.374;2022-07-01T02:29:28;26.50;57.60
32815;DHT22;19165;48.182;16.374;2022-07-01T02:31:54;26.50;57.60
32815;DHT22;19165;48.182;16.374;2022-07-01T02:34:19;26.50;57.60
32815;DHT22;19165;48.182;16.374;2022-07-01T02:36:45;26.40;57.50
32815;DHT22;19165;48.182;16.374;2022-07-01T02:39:12;26.50;57.30
32815;DHT22;19165;48.182;16.374;2022-07-01T02:41:37;26.50;57.00
32815;DHT22;19165;48.182;16.374;2022-07-01T02:44:23;26.50;56.60
32815;DHT22;19165;48.182;16.374;2022-07-01T02:46:50;26.40;56.40
32815;DHT22;19165;48.182;16.374;2022-07-01T02:49:16;26.50;56.30
32815;DHT22;19165;48.182;16.374;2022-07-01T02:51:42;26.40;55.90
32815;DHT22;19165;48.182;16.374;2022-07-01T02:54:08;26.50;55.70
32815;DHT22;19165;48.182;16.374;2022-07-01T02:56:34;26.50;55.60
32815;DHT22;19165;48.182;16.374;2022-07-01T02:59:00;26.50;55.30
32815;DHT22;19165;48.182;16.374;2022-07-01T03:01:26;26.40;55.10
32815;DHT22;19165;48.182;16.374;2022-07-01T03:03:53;26.40;55.00
32815;DHT22;19165;48.182;16.374;2022-07-01T03:06:19;26.40;55.00
32815;DHT22;19165;48.182;16.374;2022-07-01T03:08:45;26.40;54.90
32815;DHT22;19165;48.182;16.374;2022-07-01T03:11:11;26.50;54.40
32815;DHT22;19165;48.182;16.374;2022-07-01T03:13:37;26.50;54.20
32815;DHT22;19165;48.182;16.374;2022-07-01T03:16:03;26.50;53.80
32815;DHT22;19165;48.182;16.374;2022-07-01T03:18:29;26.50;53.70
32815;DHT22;19165;48.182;16.374;2022-07-01T03:20:56;26.50;53.60
32815;DHT22;19165;48.182;16.374;2022-07-01T03:23:22;26.50;53.70
32815;DHT22;19165;48.182;16.374;2022-07-01T03:25:48;26.50;53.70
32815;DHT22;19165;48.182;16.374;2022-07-01T03:28:14;26.50;53.70
32815;DHT22;19165;48.182;16.374;2022-07-01T03:30:40;26.60;53.80
32815;DHT22;19165;48.182;16.374;2022-07-01T03:33:06;26.60;53.90
32815;DHT22;19165;48.182;16.374;2022-07-01T03:35:32;26.50;53.80
32815;DHT22;19165;48.182;16.374;2022-07-01T03:38:03;26.50;53.90
32815;DHT22;19165;48.182;16.374;2022-07-01T03:40:29;26.50;54.00
32815;DHT22;19165;48.182;16.374;2022-07-01T03:42:55;26.50;54.00
32815;DHT22;19165;48.182;16.374;2022-07-01T03:45:21;26.60;54.00
32815;DHT22;19165;48.182;16.374;2022-07-01T03:47:48;26.60;53.60
32815;DHT22;19165;48.182;16.374;2022-07-01T03:50:14;26.70;53.10
32815;DHT22;19165;48.182;16.374;2022-07-01T03:52:40;26.60;52.80
32815;DHT22;19165;48.182;16.374;2022-07-01T03:55:09;26.70;52.70
32815;DHT22;19165;48.182;16.374;2022-07-01T03:57:35;26.70;52.80
32815;DHT22;19165;48.182;16.374;2022-07-01T04:00:01;26.60;52.70
32815;DHT22;19165;48.182;16.374;2022-07-01T04:02:27;26.70;52.70
32815;DHT22;19165;48.182;16.374;2022-07-01T04:04:53;26.70;52.60
32815;DHT22;19165;48.182;16.374;2022-07-01T04:07:21;26.70;52.40
32815;DHT22;19165;48.182;16.374;2022-07-01T04:09:47;26.80;52.40
32815;DHT22;19165;48.182;16.374;2022-07-01T04:12:15;26.80;52.30
32815;DHT22;19165;48.182;16.374;2022-07-01T04:14:41;26.90;51.90
32815;DHT22;19165;48.182;16.374;2022-07-01T04:17:07;27.00;51.10
32815;DHT22;19165;48.182;16.374;2022-07-01T04:19:34;27.00;50.80
32815;DHT22;19165;48.182;16.374;2022-07-01T04:22:00;27.20;50.50
32815;DHT22;19165;48.182;16.374;2022-07-01T04:24:44;27.30;50.00
32815;DHT22;19165;48.182;16.374;2022-07-01T04:27:10;27.40;49.60
32815;DHT22;19165;48.182;16.374;2022-07-01T04:29:38;27.50;49.50
32815;DHT22;19165;48.182;16.374;2022-07-01T04:32:06;27.60;49.30
32815;DHT22;19165;48.182;16.374;2022-07-01T04:34:32;27.70;48.70
32815;DHT22;19165;48.182;16.374;2022-07-01T04:36:58;27.70;48.40
32815;DHT22;19165;48.182;16.374;2022-07-01T04:39:24;27.70;48.40
32815;DHT22;19165;48.182;16.374;2022-07-01T04:41:50;27.80;48.50
32815;DHT22;19165;48.182;16.374;2022-07-01T04:44:25;27.70;48.50
32815;DHT22;19165;48.182;16.374;2022-07-01T04:46:52;27.80;48.50
32815;DHT22;19165;48.182;16.374;2022-07-01T04:49:18;27.90;48.40
32815;DHT22;19165;48.182;16.374;2022-07-01T04:51:44;28.00;48.50
32815;DHT22;19165;48.182;16.374;2022-07-01T04:54:10;28.00;48.40
32815;DHT22;19165;48.182;16.374;2022-07-01T04:56:37;28.10;48.30
32815;DHT22;19165;48.182;16.374;2022-07-01T04:59:03;28.20;48.10
32815;DHT22;19165;48.182;16.374;2022-07-01T05:01:29;28.30;47.90
32815;DHT22;19165;48.182;16.374;2022-07-01T05:03:57;28.40;47.90
32815;DHT22;19165;48.182;16.374;2022-07-01T05:06:23;28.50;47.40
32815;DHT22;19165;48.182;16.374;2022-07-01T05:08:49;28.50;47.50
32815;DHT22;19165;48.182;16.374;2022-07-01T05:11:15;28.40;47.50
32815;DHT22;19165;48.182;16.374;2022-07-01T05:13:42;28.40;47.30
32815;DHT22;19165;48.182;16.374;2022-07-01T05:16:07;28.50;47.40
32815;DHT22;19165;48.182;16.374;2022-07-01T05:18:37;28.50;46.90
32815;DHT22;19165;48.182;16.374;2022-07-01T05:21:29;28.50;46.70
32815;DHT22;19165;48.182;16.374;2022-07-01T05:24:14;28.60;46.50
32815;DHT22;19165;48.182;16.374;2022-07-01T05:26:40;28.60;46.40
32815;DHT22;19165;48.182;16.374;2022-07-01T05:29:06;28.70;46.30
32815;DHT22;19165;48.182;16.374;2022-07-01T05:31:32;28.50;46.10
32815;DHT22;19165;48.182;16.374;2022-07-01T05:33:58;28.50;46.00
32815;DHT22;19165;48.182;16.374;2022-07-01T05:36:24;28.60;45.30
32815;DHT22;19165;48.182;16.374;2022-07-01T05:38:52;28.50;45.30
32815;DHT22;19165;48.182;16.374;2022-07-01T05:41:17;28.30;45.10
32815;DHT22;19165;48.182;16.374;2022-07-01T05:43:44;28.10;45.50
32815;DHT22;19165;48.182;16.374;2022-07-01T05:46:10;28.00;45.80
32815;DHT22;19165;48.182;16.374;2022-07-01T05:48:36;27.90;45.90
32815;DHT22;19165;48.182;16.374;2022-07-01T05:51:02;27.70;46.30
32815;DHT22;19165;48.182;16.374;2022-07-01T05:53:28;27.60;46.70
32815;DHT22;19165;48.182;16.374;2022-07-01T05:55:56;27.60;46.80
32815;DHT22;19165;48.182;16.374;2022-07-01T05:58:22;27.60;46.80
32815;DHT22;19165;48.182;16.374;2022-07-01T06:00:47;27.70;46.60
32815;DHT22;19165;48.182;16.374;2022-07-01T06:03:14;27.80;46.50
32815;DHT22;19165;48.182;16.374;2022-07-01T06:05:41;27.70;46.40
32815;DHT22;19165;48.182;16.374;2022-07-01T06:08:07;27.70;46.80
32815;DHT22;19165;48.182;16.374;2022-07-01T06:10:33;27.70;46.70
32815;DHT22;19165;48.182;16.374;2022-07-01T06:13:01;27.70;46.90
32815;DHT22;19165;48.182;16.374;2022-07-01T06:15:27;27.70;46.90
32815;DHT22;19165;48.182;16.374;2022-07-01T06:17:54;27.50;47.00
32815;DHT22;19165;48.182;16.374;2022-07-01T06:20:20;27.30;47.80
32815;DHT22;19165;48.182;16.374;2022-07-01T06:22:46;27.10;48.20
32815;DHT22;19165;48.182;16.374;2022-07-01T06:25:12;27.10;48.70
32815;DHT22;19165;48.182;16.374;2022-07-01T06:27:38;27.00;49.00
32815;DHT22;19165;48.182;16.374;2022-07-01T06:30:07;27.00;49.10
32815;DHT22;19165;48.182;16.374;2022-07-01T06:32:34;27.00;49.10
32815;DHT22;19165;48.182;16.374;2022-07-01T06:35:00;27.00;49.10
32815;DHT22;19165;48.182;16.374;2022-07-01T06:37:26;27.00;49.20
32815;DHT22;19165;48.182;16.374;2022-07-01T06:39:52;27.00;49.50
32815;DHT22;19165;48.182;16.374;2022-07-01T06:42:18;27.00;49.70
32815;DHT22;19165;48.182;16.374;2022-07-01T06:44:44;27.20;49.60
32815;DHT22;19165;48.182;16.374;2022-07-01T06:47:11;27.20;49.30
32815;DHT22;19165;48.182;16.374;2022-07-01T06:49:38;27.30;49.20
32815;DHT22;19165;48.182;16.374;2022-07-01T06:52:05;27.20;49.20
32815;DHT22;19165;48.182;16.374;2022-07-01T06:54:31;27.20;49.30
32815;DHT22;19165;48.182;16.374;2022-07-01T06:56:57;27.30;49.10
32815;DHT22;19165;48.182;16.374;2022-07-01T06:59:23;27.50;49.10
32815;DHT22;19165;48.182;16.374;2022-07-01T07:01:49;27.60;48.90
32815;DHT22;19165;48.182;16.374;2022-07-01T07:04:16;27.70;49.30
32815;DHT22;19165;48.182;16.374;2022-07-01T07:06:42;27.70;48.40
32815;DHT22;19165;48.182;16.374;2022-07-01T07:09:08;27.70;48.50
32815;DHT22;19165;48.182;16.374;2022-07-01T07:11:34;27.80;48.30
32815;DHT22;19165;48.182;16.374;2022-07-01T07:14:00;27.70;48.50
32815;DHT22;19165;48.182;16.374;2022-07-01T07:16:26;27.80;48.50
32815;DHT22;19165;48.182;16.374;2022-07-01T07:18:52;27.80;48.50
32815;DHT22;19165;48.182;16.374;2022-07-01T07:21:19;27.90;48.40
32815;DHT22;19165;48.182;16.374;2022-07-01T07:23:45;28.10;48.40
32815;DHT22;19165;48.182;16.374;2022-07-01T07:26:11;28.20;48.20
32815;DHT22;19165;48.182;16.374;2022-07-01T07:28:38;28.50;47.90
32815;DHT22;19165;48.182;16.374;2022-07-01T07:31:04;28.60;47.60
32815;DHT22;19165;48.182;16.374;2022-07-01T07:33:31;28.60;47.50
32815;DHT22;19165;48.182;16.374;2022-07-01T07:35:57;28.70;47.40
32815;DHT22;19165;48.182;16.374;2022-07-01T07:38:24;28.70;47.80
32815;DHT22;19165;48.182;16.374;2022-07-01T07:40:50;28.80;47.00
32815;DHT22;19165;48.182;16.374;2022-07-01T07:43:16;28.70;46.80
32815;DHT22;19165;48.182;16.374;2022-07-01T07:45:42;28.70;47.00
32815;DHT22;19165;48.182;16.374;2022-07-01T07:48:08;28.90;47.10
32815;DHT22;19165;48.182;16.374;2022-07-01T07:50:35;29.00;46.80
32815;DHT22;19165;48.182;16.374;2022-07-01T07:53:01;29.10;46.70
32815;DHT22;19165;48.182;16.374;2022-07-01T07:55:29;29.30;46.50
32815;DHT22;19165;48.182;16.374;2022-07-01T07:57:55;29.50;46.20
32815;DHT22;19165;48.182;16.374;2022-07-01T08:00:20;29.30;45.90
32815;DHT22;19165;48.182;16.374;2022-07-01T08:02:47;29.40;45.90
32815;DHT22;19165;48.182;16.374;2022-07-01T08:05:13;29.50;45.70
32815;DHT22;19165;48.182;16.374;2022-07-01T08:07:40;29.60;45.30
32815;DHT22;19165;48.182;16.374;2022-07-01T08:10:08;29.50;44.90
32815;DHT22;19165;48.182;16.374;2022-07-01T08:12:36;29.60;45.10
32815;DHT22;19165;48.182;16.374;2022-07-01T08:15:02;29.70;44.60
32815;DHT22;19165;48.182;16.374;2022-07-01T08:17:28;29.30;45.30
32815;DHT22;19165;48.182;16.374;2022-07-01T08:19:54;29.10;45.90
32815;DHT22;19165;48.182;16.374;2022-07-01T08:22:20;29.10;45.90
32815;DHT22;19165;48.182;16.374;2022-07-01T08:24:46;29.10;45.90
32815;DHT22;19165;48.182;16.374;2022-07-01T08:27:12;29.30;45.70
32815;DHT22;19165;48.182;16.374;2022-07-01T08:29:39;29.70;45.50
32815;DHT22;19165;48.182;16.374;2022-07-01T08:32:06;30.00;44.60
32815;DHT22;19165;48.182;16.374;2022-07-01T08:34:32;30.20;44.40
32815;DHT22;19165;48.182;16.374;2022-07-01T08:36:59;30.30;44.20
32815;DHT22;19165;48.182;16.374;2022-07-01T08:39:26;30.50;44.10
32815;DHT22;19165;48.182;16.374;2022-07-01T08:41:52;30.70;43.30
32815;DHT22;19165;48.182;16.374;2022-07-01T08:44:18;30.80;43.30
32815;DHT22;19165;48.182;16.374;2022-07-01T08:46:45;30.90;43.00
32815;DHT22;19165;48.182;16.374;2022-07-01T08:49:12;31.00;43.10
32815;DHT22;19165;48.182;16.374;2022-07-01T08:51:38;31.40;42.40
32815;DHT22;19165;48.182;16.374;2022-07-01T08:54:04;31.60;41.80
32815;DHT22;19165;48.182;16.374;2022-07-01T08:56:30;31.70;41.30
32815;DHT22;19165;48.182;16.374;2022-07-01T08:59:22;31.80;41.00
32815;DHT22;19165;48.182;16.374;2022-07-01T09:01:56;31.80;40.10
32815;DHT22;19165;48.182;16.374;2022-07-01T09:04:23;31.70;40.60
32815;DHT22;19165;48.182;16.374;2022-07-01T09:06:49;31.80;40.60
32815;DHT22;19165;48.182;16.374;2022-07-01T09:09:17;31.80;40.50
32815;DHT22;19165;48.182;16.374;2022-07-01T09:11:47;32.00;40.10
32815;DHT22;19165;48.182;16.374;2022-07-01T09:14:20;32.50;39.60
32815;DHT22;19165;48.182;16.374;2022-07-01T09:16:49;32.60;39.20
32815;DHT22;19165;48.182;16.374;2022-07-01T09:19:18;33.00;38.50
32815;DHT22;19165;48.182;16.374;2022-07-01T09:21:48;33.00;38.30
32815;DHT22;19165;48.182;16.374;2022-07-01T09:24:25;32.90;38.40
32815;DHT22;19165;48.182;16.374;2022-07-01T09:26:54;32.80;38.40
32815;DHT22;19165;48.182;16.374;2022-07-01T09:29:26;32.90;38.40
32815;DHT22;19165;48.182;16.374;2022-07-01T09:31:52;33.10;38.40
32815;DHT22;19165;48.182;16.374;2022-07-01T09:34:19;32.90;38.50
32815;DHT22;19165;48.182;16.374;2022-07-01T09:36:52;33.00;38.90
32815;DHT22;19165;48.182;16.374;2022-07-01T09:39:18;33.50;38.80
32815;DHT22;19165;48.182;16.374;2022-07-01T09:41:44;34.30;37.30
32815;DHT22;19165;48.182;16.374;2022-07-01T09:44:10;35.00;36.10
32815;DHT22;19165;48.182;16.374;2022-07-01T09:46:36;35.40;35.20
32815;DHT22;19165;48.182;16.374;2022-07-01T09:49:03;35.80;34.30
32815;DHT22;19165;48.182;16.374;2022-07-01T09:51:30;36.10;34.10
32815;DHT22;19165;48.182;16.374;2022-07-01T09:53:56;36.20;32.80
32815;DHT22;19165;48.182;16.374;2022-07-01T09:56:22;35.80;33.10
32815;DHT22;19165;48.182;16.374;2022-07-01T09:58:48;35.90;33.60
32815;DHT22;19165;48.182;16.374;2022-07-01T10:01:15;36.50;32.80
32815;DHT22;19165;48.182;16.374;2022-07-01T10:03:41;36.60;32.80
32815;DHT22;19165;48.182;16.374;2022-07-01T10:06:38;37.00;32.40
32815;DHT22;19165;48.182;16.374;2022-07-01T10:09:18;37.30;32.20
32815;DHT22;19165;48.182;16.374;2022-07-01T10:14:57;38.50;30.30
32815;DHT22;19165;48.182;16.374;2022-07-01T10:17:29;39.20;30.00
32815;DHT22;19165;48.182;16.374;2022-07-01T10:19:56;40.00;29.50
32815;DHT22;19165;48.182;16.374;2022-07-01T10:22:28;41.00;28.80
32815;DHT22;19165;48.182;16.374;2022-07-01T10:24:54;41.80;27.60
32815;DHT22;19165;48.182;16.374;2022-07-01T10:27:22;42.10;27.00
32815;DHT22;19165;48.182;16.374;2022-07-01T10:29:48;42.50;26.80
32815;DHT22;19165;48.182;16.374;2022-07-01T10:32:26;43.20;26.70
32815;DHT22;19165;48.182;16.374;2022-07-01T10:35:03;44.30;25.20
32815;DHT22;19165;48.182;16.374;2022-07-01T10:37:31;44.60;24.80
32815;DHT22;19165;48.182;16.374;2022-07-01T10:39:58;45.10;24.30
32815;DHT22;19165;48.182;16.374;2022-07-01T10:42:29;45.30;24.00
32815;DHT22;19165;48.182;16.374;2022-07-01T10:45:06;45.20;23.80
32815;DHT22;19165;48.182;16.374;2022-07-01T10:47:33;44.70;24.40
32815;DHT22;19165;48.182;16.374;2022-07-01T10:50:03;45.20;24.30
32815;DHT22;19165;48.182;16.374;2022-07-01T10:52:30;46.20;23.70
32815;DHT22;19165;48.182;16.374;2022-07-01T10:54:57;47.40;22.90
32815;DHT22;19165;48.182;16.374;2022-07-01T10:57:28;48.00;22.30
32815;DHT22;19165;48.182;16.374;2022-07-01T10:59:55;48.10;22.30
32815;DHT22;19165;48.182;16.374;2022-07-01T11:02:23;48.60;22.00
32815;DHT22;19165;48.182;16.374;2022-07-01T11:04:52;48.60;21.60
32815;DHT22;19165;48.182;16.374;2022-07-01T11:07:18;47.40;21.90
32815;DHT22;19165;48.182;16.374;2022-07-01T11:09:46;45.60;22.70
32815;DHT22;19165;48.182;16.374;2022-07-01T11:12:15;45.60;23.40
32815;DHT22;19165;48.182;16.374;2022-07-01T11:14:42;45.40;23.00
32815;DHT22;19165;48.182;16.374;2022-07-01T11:17:09;44.90;23.50
32815;DHT22;19165;48.182;16.374;2022-07-01T11:19:35;45.20;23.70
32815;DHT22;19165;48.182;16.374;2022-07-01T11:22:01;46.10;23.20
32815;DHT22;19165;48.182;16.374;2022-07-01T11:24:28;46.60;23.10
32815;DHT22;19165;48.182;16.374;2022-07-01T11:27:00;47.90;22.30
32815;DHT22;19165;48.182;16.374;2022-07-01T11:29:27;47.60;21.70
32815;DHT22;19165;48.182;16.374;2022-07-01T11:31:54;47.10;22.10
32815;DHT22;19165;48.182;16.374;2022-07-01T11:34:20;48.00;21.90
32815;DHT22;19165;48.182;16.374;2022-07-01T11:36:47;48.90;21.20
32815;DHT22;19165;48.182;16.374;2022-07-01T11:39:32;49.50;21.00
32815;DHT22;19165;48.182;16.374;2022-07-01T11:42:02;50.10;20.30
32815;DHT22;19165;48.182;16.374;2022-07-01T11:44:31;49.00;20.60
32815;DHT22;19165;48.182;16.374;2022-07-01T11:46:58;47.80;20.90
32815;DHT22;19165;48.182;16.374;2022-07-01T11:49:24;47.20;21.60
32815;DHT22;19165;48.182;16.374;2022-07-01T11:51:57;46.60;21.90
32815;DHT22;19165;48.182;16.374;2022-07-01T11:54:24;47.20;21.70
32815;DHT22;19165;48.182;16.374;2022-07-01T11:56:50;46.90;21.50
32815;DHT22;19165;48.182;16.374;2022-07-01T11:59:18;46.90;21.60
32815;DHT22;19165;48.182;16.374;2022-07-01T12:01:51;47.90;21.30
32815;DHT22;19165;48.182;16.374;2022-07-01T12:04:18;48.70;20.80
32815;DHT22;19165;48.182;16.374;2022-07-01T12:06:44;48.90;20.40
32815;DHT22;19165;48.182;16.374;2022-07-01T12:09:13;49.10;20.50
32815;DHT22;19165;48.182;16.374;2022-07-01T12:11:39;50.00;20.10
32815;DHT22;19165;48.182;16.374;2022-07-01T12:14:09;50.60;19.50
32815;DHT22;19165;48.182;16.374;2022-07-01T12:16:40;50.60;19.80
32815;DHT22;19165;48.182;16.374;2022-07-01T12:19:06;51.60;19.40
32815;DHT22;19165;48.182;16.374;2022-07-01T12:21:47;51.80;19.10
32815;DHT22;19165;48.182;16.374;2022-07-01T12:24:15;52.10;18.80
32815;DHT22;19165;48.182;16.374;2022-07-01T12:26:50;52.80;18.50
32815;DHT22;19165;48.182;16.374;2022-07-01T12:29:16;53.70;18.10
32815;DHT22;19165;48.182;16.374;2022-07-01T12:31:57;52.90;18.10
32815;DHT22;19165;48.182;16.374;2022-07-01T12:34:27;52.10;18.70
32815;DHT22;19165;48.182;16.374;2022-07-01T12:37:01;52.40;18.60
32815;DHT22;19165;48.182;16.374;2022-07-01T12:39:28;52.70;18.40
32815;DHT22;19165;48.182;16.374;2022-07-01T12:41:54;51.20;18.30
32815;DHT22;19165;48.182;16.374;2022-07-01T12:44:21;49.70;19.40
32815;DHT22;19165;48.182;16.374;2022-07-01T12:46:49;48.00;20.20
32815;DHT22;19165;48.182;16.374;2022-07-01T12:49:19;45.90;21.60
32815;DHT22;19165;48.182;16.374;2022-07-01T12:51:46;44.10;22.80
32815;DHT22;19165;48.182;16.374;2022-07-01T12:54:30;42.80;23.90
32815;DHT22;19165;48.182;16.374;2022-07-01T12:56:57;41.70;24.90
32815;DHT22;19165;48.182;16.374;2022-07-01T12:59:23;41.30;25.40
32815;DHT22;19165;48.182;16.374;2022-07-01T13:01:50;41.50;25.50
32815;DHT22;19165;48.182;16.374;2022-07-01T13:04:23;42.30;25.40
32815;DHT22;19165;48.182;16.374;2022-07-01T13:06:49;43.60;24.20
32815;DHT22;19165;48.182;16.374;2022-07-01T13:09:15;44.30;23.50
32815;DHT22;19165;48.182;16.374;2022-07-01T13:11:41;44.20;23.20
32815;DHT22;19165;48.182;16.374;2022-07-01T13:14:07;43.10;23.50
32815;DHT22;19165;48.182;16.374;2022-07-01T13:16:33;41.70;24.40
32815;DHT22;19165;48.182;16.374;2022-07-01T13:19:00;40.40;25.40
32815;DHT22;19165;48.182;16.374;2022-07-01T13:21:26;39.40;26.40
32815;DHT22;19165;48.182;16.374;2022-07-01T13:23:52;38.60;27.00
32815;DHT22;19165;48.182;16.374;2022-07-01T13:26:18;38.00;27.70
32815;DHT22;19165;48.182;16.374;2022-07-01T13:28:44;37.50;28.30
32815;DHT22;19165;48.182;16.374;2022-07-01T13:31:10;37.40;28.60
32815;DHT22;19165;48.182;16.374;2022-07-01T13:33:36;37.40;28.80
32815;DHT22;19165;48.182;16.374;2022-07-01T13:36:03;37.60;28.80
32815;DHT22;19165;48.182;16.374;2022-07-01T13:38:29;38.40;28.30
32815;DHT22;19165;48.182;16.374;2022-07-01T13:40:55;38.90;27.60
32815;DHT22;19165;48.182;16.374;2022-07-01T13:43:21;38.80;27.40
32815;DHT22;19165;48.182;16.374;2022-07-01T13:45:47;38.30;27.70
32815;DHT22;19165;48.182;16.374;2022-07-01T13:48:13;37.70;28.10
32815;DHT22;19165;48.182;16.374;2022-07-01T13:50:39;37.30;28.50
32815;DHT22;19165;48.182;16.374;2022-07-01T13:53:06;37.10;28.80
32815;DHT22;19165;48.182;16.374;2022-07-01T13:55:32;37.00;28.60
32815;DHT22;19165;48.182;16.374;2022-07-01T13:57:58;36.90;28.50
32815;DHT22;19165;48.182;16.374;2022-07-01T14:00:24;36.60;28.70
32815;DHT22;19165;48.182;16.374;2022-07-01T14:02:50;36.20;28.80
32815;DHT22;19165;48.182;16.374;2022-07-01T14:05:16;36.00;29.30
32815;DHT22;19165;48.182;16.374;2022-07-01T14:07:42;35.70;29.60
32815;DHT22;19165;48.182;16.374;2022-07-01T14:10:10;35.80;30.10
32815;DHT22;19165;48.182;16.374;2022-07-01T14:12:36;36.30;30.30
32815;DHT22;19165;48.182;16.374;2022-07-01T14:15:02;37.10;29.90
32815;DHT22;19165;48.182;16.374;2022-07-01T14:17:29;38.20;28.90
32815;DHT22;19165;48.182;16.374;2022-07-01T14:19:55;39.10;28.00
32815;DHT22;19165;48.182;16.374;2022-07-01T14:22:23;39.50;27.20
32815;DHT22;19165;48.182;16.374;2022-07-01T14:24:49;39.50;27.20
32815;DHT22;19165;48.182;16.374;2022-07-01T14:27:16;39.90;26.70
32815;DHT22;19165;48.182;16.374;2022-07-01T14:29:42;40.00;26.60
32815;DHT22;19165;48.182;16.374;2022-07-01T14:32:08;40.20;26.50
32815;DHT22;19165;48.182;16.374;2022-07-01T14:34:34;40.40;26.40
32815;DHT22;19165;48.182;16.374;2022-07-01T14:37:00;40.30;26.40
32815;DHT22;19165;48.182;16.374;2022-07-01T14:39:26;40.20;26.50
32815;DHT22;19165;48.182;16.374;2022-07-01T14:41:52;40.10;26.50
32815;DHT22;19165;48.182;16.374;2022-07-01T14:44:20;39.90;26.60
32815;DHT22;19165;48.182;16.374;2022-07-01T14:46:45;39.70;26.80
32815;DHT22;19165;48.182;16.374;2022-07-01T14:49:11;39.40;27.10
32815;DHT22;19165;48.182;16.374;2022-07-01T14:51:40;39.10;27.30
32815;DHT22;19165;48.182;16.374;2022-07-01T14:54:06;38.40;27.80
32815;DHT22;19165;48.182;16.374;2022-07-01T14:56:32;37.80;28.70
32815;DHT22;19165;48.182;16.374;2022-07-01T14:58:58;37.30;29.30
32815;DHT22;19165;48.182;16.374;2022-07-01T15:01:25;36.70;29.90
32815;DHT22;19165;48.182;16.374;2022-07-01T15:03:51;36.40;30.40
32815;DHT22;19165;48.182;16.374;2022-07-01T15:06:17;36.20;30.90
32815;DHT22;19165;48.182;16.374;2022-07-01T15:08:43;35.90;31.30
32815;DHT22;19165;48.182;16.374;2022-07-01T15:11:09;35.90;31.70
32815;DHT22;19165;48.182;16.374;2022-07-01T15:13:35;35.70;31.90
32815;DHT22;19165;48.182;16.374;2022-07-01T15:16:03;35.50;32.50
32815;DHT22;19165;48.182;16.374;2022-07-01T15:18:30;35.50;32.50
32815;DHT22;19165;48.182;16.374;2022-07-01T15:20:58;35.60;32.70
32815;DHT22;19165;48.182;16.374;2022-07-01T15:23:24;35.50;33.00